createdAt,value
2022-10-18T00:01:12.936Z,10.30
2022-10-18T00:03:40.864Z,7.73
2022-10-18T00:06:14.470Z,10.70
2022-10-18T00:08:42.339Z,5.60
2022-10-18T00:11:10.254Z,20.13
2022-10-18T00:13:38.980Z,20.07
2022-10-18T00:16:13.369Z,10.60
2022-10-18T00:18:42.146Z,18.37
2022-10-18T00:21:16.089Z,7.27
2022-10-18T00:23:44.723Z,17.03
2022-10-18T00:26:15.744Z,11.70
2022-10-18T00:28:45.303Z,12.80
2022-10-18T00:31:17.622Z,23.80
2022-10-18T00:33:47.150Z,14.83
2022-10-18T00:36:15.818Z,10.53
2022-10-18T00:38:44.479Z,19.87
2022-10-18T00:41:15.079Z,12.60
2022-10-18T00:43:54.772Z,9.60
2022-10-18T00:46:25.737Z,18.13
2022-10-18T00:48:56.496Z,12.37
2022-10-18T00:51:26.597Z,11.30
2022-10-18T00:53:54.503Z,26.97
2022-10-18T00:56:22.682Z,9.93
2022-10-18T00:58:52.044Z,22.23
2022-10-18T01:01:22.271Z,17.87
2022-10-18T01:03:55.133Z,7.70
2022-10-18T01:06:26.041Z,11.90
2022-10-18T01:09:06.349Z,14.50
2022-10-18T01:11:51.398Z,11.70
2022-10-18T01:14:32.451Z,16.27
2022-10-18T01:17:05.001Z,14.37
2022-10-18T01:20:14.282Z,11.37
2022-10-18T01:22:46.674Z,6.17
2022-10-18T01:25:30.762Z,9.30
2022-10-18T01:28:05.780Z,13.33
2022-10-18T01:30:40.123Z,9.43
2022-10-18T01:33:16.129Z,11.50
2022-10-18T01:35:50.399Z,17.07
2022-10-18T01:38:20.978Z,12.60
2022-10-18T01:40:52.228Z,19.73
2022-10-18T01:43:22.633Z,15.90
2022-10-18T01:45:54.734Z,11.90
2022-10-18T01:48:23.404Z,7.50
2022-10-18T01:50:51.285Z,12.27
2022-10-18T01:53:32.968Z,13.83
2022-10-18T01:56:28.534Z,12.83
2022-10-18T01:59:04.151Z,10.13
2022-10-18T02:01:42.206Z,15.13
2022-10-18T02:04:21.842Z,7.40
2022-10-18T02:06:57.308Z,12.27
2022-10-18T02:09:32.972Z,15.10
2022-10-18T02:12:03.775Z,7.70
2022-10-18T02:14:33.132Z,14.03
2022-10-18T02:17:07.160Z,11.90
2022-10-18T02:19:39.606Z,6.80
2022-10-18T02:22:09.503Z,13.03
2022-10-18T02:24:40.545Z,12.40
2022-10-18T02:27:08.856Z,12.87
2022-10-18T02:29:37.308Z,18.30
2022-10-18T02:32:12.033Z,8.10
2022-10-18T02:34:44.578Z,15.73
2022-10-18T02:37:13.037Z,11.33
2022-10-18T02:39:45.744Z,17.20
2022-10-18T02:42:15.103Z,13.00
2022-10-18T02:44:43.180Z,10.70
2022-10-18T02:47:13.576Z,8.33
2022-10-18T02:49:41.601Z,19.33
2022-10-18T02:52:09.437Z,20.90
2022-10-18T02:54:37.380Z,6.63
2022-10-18T02:57:07.364Z,6.93
2022-10-18T02:59:35.183Z,9.30
2022-10-18T03:02:03.033Z,17.50
2022-10-18T03:04:32.284Z,10.27
2022-10-18T03:07:00.247Z,15.37
2022-10-18T03:09:28.282Z,13.63
2022-10-18T03:11:56.174Z,8.23
2022-10-18T03:14:24.080Z,16.20
2022-10-18T03:16:54.068Z,14.47
2022-10-18T03:19:21.961Z,10.47
2022-10-18T03:21:51.219Z,11.93
2022-10-18T03:24:19.198Z,11.70
2022-10-18T03:26:47.263Z,10.10
2022-10-18T03:29:15.183Z,6.93
2022-10-18T03:31:43.311Z,13.00
2022-10-18T03:34:11.211Z,6.47
2022-10-18T03:36:42.184Z,7.63
2022-10-18T03:39:12.535Z,7.17
2022-10-18T03:41:40.423Z,17.97
2022-10-18T03:44:08.443Z,13.67
2022-10-18T03:46:36.246Z,11.97
2022-10-18T03:49:04.183Z,13.80
2022-10-18T03:51:32.063Z,16.70
2022-10-18T03:53:59.946Z,9.27
2022-10-18T03:56:29.428Z,12.43
2022-10-18T03:58:58.107Z,14.23
2022-10-18T04:01:26.062Z,15.87
2022-10-18T04:03:56.359Z,16.50
2022-10-18T04:06:24.276Z,12.77
2022-10-18T04:08:52.147Z,19.73
2022-10-18T04:11:22.394Z,10.20
2022-10-18T04:13:51.725Z,17.60
2022-10-18T04:16:19.713Z,13.40
2022-10-18T04:18:47.580Z,11.50
2022-10-18T04:21:15.660Z,12.20
2022-10-18T04:23:48.739Z,14.27
2022-10-18T04:26:17.458Z,14.37
2022-10-18T04:28:45.685Z,13.67
2022-10-18T04:31:15.048Z,14.83
2022-10-18T04:33:43.655Z,14.30
2022-10-18T04:36:11.907Z,10.47
2022-10-18T04:38:39.769Z,10.60
2022-10-18T04:41:09.887Z,10.90
2022-10-18T04:43:37.833Z,12.27
2022-10-18T04:46:05.709Z,18.07
2022-10-18T04:48:37.372Z,18.40
2022-10-18T04:51:08.247Z,9.30
2022-10-18T04:53:36.142Z,15.87
2022-10-18T04:56:04.027Z,8.73
2022-10-18T04:58:32.211Z,7.27
2022-10-18T05:01:00.083Z,13.87
2022-10-18T05:03:27.987Z,15.83
2022-10-18T05:06:01.918Z,12.40
2022-10-18T05:08:34.968Z,20.23
2022-10-18T05:11:03.647Z,10.30
2022-10-18T05:13:31.851Z,8.83
2022-10-18T05:16:00.747Z,10.47
2022-10-18T05:18:28.698Z,17.27
2022-10-18T05:20:58.048Z,12.47
2022-10-18T05:23:26.489Z,10.90
2022-10-18T05:25:54.914Z,11.53
2022-10-18T05:29:14.290Z,13.67
2022-10-18T05:31:42.390Z,10.90
2022-10-18T05:34:10.374Z,7.60
2022-10-18T05:36:39.517Z,7.10
2022-10-18T05:39:07.754Z,10.80
2022-10-18T05:41:35.707Z,11.70
2022-10-18T05:44:07.648Z,8.40
2022-10-18T05:46:37.997Z,14.43
2022-10-18T05:49:05.917Z,11.90
2022-10-18T05:51:33.866Z,9.10
2022-10-18T05:54:06.204Z,10.90
2022-10-18T05:56:34.466Z,15.63
2022-10-18T05:59:04.917Z,11.27
2022-10-18T06:01:32.900Z,9.33
2022-10-18T06:04:03.365Z,13.03
2022-10-18T06:06:32.463Z,7.43
2022-10-18T06:09:00.401Z,7.67
2022-10-18T06:11:29.954Z,11.10
2022-10-18T06:14:00.112Z,9.73
2022-10-18T06:16:32.262Z,10.13
2022-10-18T06:19:00.826Z,20.63
2022-10-18T06:21:28.679Z,12.57
2022-10-18T06:24:00.054Z,10.00
2022-10-18T06:26:29.884Z,17.03
2022-10-18T06:28:57.859Z,8.67
2022-10-18T06:31:25.869Z,10.20
2022-10-18T06:33:53.778Z,8.53
2022-10-18T06:36:22.945Z,9.03
2022-10-18T06:38:51.613Z,11.10
2022-10-18T06:41:20.408Z,15.20
2022-10-18T06:43:50.821Z,12.43
2022-10-18T06:46:18.680Z,13.23
2022-10-18T06:48:47.412Z,11.20
2022-10-18T06:51:15.306Z,11.00
2022-10-18T06:53:48.555Z,16.50
2022-10-18T06:56:21.222Z,12.50
2022-10-18T06:58:50.529Z,10.53
2022-10-18T07:01:21.603Z,15.70
2022-10-18T07:03:50.614Z,11.77
2022-10-18T07:06:19.808Z,14.40
2022-10-18T07:08:48.840Z,10.13
2022-10-18T07:11:18.693Z,12.10
2022-10-18T07:13:46.767Z,13.17
2022-10-18T07:16:18.933Z,13.23
2022-10-18T07:18:48.424Z,21.70
2022-10-18T07:21:18.037Z,14.30
2022-10-18T07:23:47.125Z,17.77
2022-10-18T07:26:17.097Z,14.03
2022-10-18T07:28:50.455Z,10.30
2022-10-18T07:31:19.635Z,10.20
2022-10-18T07:33:47.736Z,10.70
2022-10-18T07:36:15.577Z,10.00
2022-10-18T07:38:45.636Z,13.63
2022-10-18T07:41:14.725Z,14.87
2022-10-18T07:43:45.767Z,10.50
2022-10-18T07:46:14.792Z,15.43
2022-10-18T07:48:44.066Z,11.73
2022-10-18T07:51:12.562Z,13.23
2022-10-18T07:53:40.719Z,11.80
2022-10-18T07:56:11.878Z,9.60
2022-10-18T07:58:39.802Z,9.30
2022-10-18T08:01:09.504Z,9.40
2022-10-18T08:03:38.467Z,8.87
2022-10-18T08:06:09.645Z,11.30
2022-10-18T08:08:38.693Z,14.27
2022-10-18T08:11:08.705Z,11.60
2022-10-18T08:13:37.501Z,8.47
2022-10-18T08:16:07.838Z,11.83
2022-10-18T08:18:36.560Z,10.60
2022-10-18T08:21:10.407Z,12.77
2022-10-18T08:23:39.195Z,9.90
2022-10-18T08:26:10.937Z,13.20
2022-10-18T08:28:39.418Z,8.70
2022-10-18T08:31:08.884Z,11.23
2022-10-18T08:33:36.919Z,14.53
2022-10-18T08:36:06.706Z,9.23
2022-10-18T08:38:37.659Z,12.93
2022-10-18T08:41:33.769Z,6.60
2022-10-18T08:44:08.269Z,8.97
2022-10-18T08:46:38.489Z,6.27
2022-10-18T08:49:08.058Z,6.80
2022-10-18T08:51:41.035Z,4.30
2022-10-18T08:54:14.670Z,7.77
2022-10-18T08:56:46.654Z,13.73
2022-10-18T08:59:15.176Z,4.53
2022-10-18T09:01:54.581Z,10.27
2022-10-18T09:04:39.174Z,7.10
2022-10-18T09:07:22.917Z,9.60
2022-10-18T09:09:59.684Z,6.00
2022-10-18T09:12:43.671Z,9.37
2022-10-18T09:15:17.955Z,4.77
2022-10-18T09:18:05.092Z,8.40
2022-10-18T09:20:45.415Z,10.90
2022-10-18T09:23:21.164Z,8.00
2022-10-18T09:25:55.350Z,6.03
2022-10-18T09:28:34.414Z,8.73
2022-10-18T09:31:08.328Z,13.33
2022-10-18T09:33:44.798Z,7.67
2022-10-18T09:36:20.318Z,10.30
2022-10-18T09:38:52.611Z,6.87
2022-10-18T09:41:26.766Z,10.87
2022-10-18T09:43:59.085Z,10.67
2022-10-18T09:46:32.317Z,5.33
2022-10-18T09:49:05.256Z,6.50
2022-10-18T09:51:37.967Z,7.00
2022-10-18T09:54:22.996Z,8.70
2022-10-18T09:56:58.405Z,19.63
2022-10-18T09:59:38.779Z,9.80
2022-10-18T10:02:07.958Z,9.70
2022-10-18T10:04:35.709Z,6.37
2022-10-18T10:07:07.704Z,11.50
2022-10-18T10:09:42.738Z,10.00
2022-10-18T10:12:27.570Z,5.60
2022-10-18T10:14:55.439Z,6.63
2022-10-18T10:17:26.009Z,8.33
2022-10-18T10:19:59.891Z,16.83
2022-10-18T10:22:33.011Z,9.80
2022-10-18T10:25:03.615Z,9.50
2022-10-18T10:27:40.952Z,12.93
2022-10-18T10:30:24.673Z,11.30
2022-10-18T10:32:53.736Z,22.03
2022-10-18T10:35:41.475Z,8.73
2022-10-18T10:38:24.809Z,11.90
2022-10-18T10:40:52.989Z,13.87
2022-10-18T10:43:37.097Z,8.03
2022-10-18T10:46:09.631Z,6.43
2022-10-18T10:48:46.490Z,7.17
2022-10-18T10:51:15.215Z,8.70
2022-10-18T10:53:50.157Z,11.60
2022-10-18T10:56:23.080Z,9.97
2022-10-18T10:58:54.383Z,10.47
2022-10-18T11:01:28.878Z,8.87
2022-10-18T11:03:59.419Z,5.37
2022-10-18T11:06:36.790Z,8.37
2022-10-18T11:09:11.135Z,5.23
2022-10-18T11:11:46.772Z,6.43
2022-10-18T11:14:26.900Z,6.53
2022-10-18T11:17:07.742Z,6.23
2022-10-18T11:19:45.880Z,11.10
2022-10-18T11:22:17.538Z,3.47
2022-10-18T11:24:45.993Z,3.63
2022-10-18T11:27:21.657Z,4.53
2022-10-18T11:30:03.700Z,6.17
2022-10-18T11:32:41.295Z,4.87
2022-10-18T11:35:27.549Z,4.93
2022-10-18T11:38:11.006Z,6.43
2022-10-18T11:40:52.641Z,7.10
2022-10-18T11:43:30.344Z,4.90
2022-10-18T11:46:13.390Z,4.93
2022-10-18T11:49:08.495Z,4.50
2022-10-18T11:52:07.324Z,3.97
2022-10-18T11:54:59.009Z,6.77
2022-10-18T11:57:41.803Z,3.40
2022-10-18T12:00:20.479Z,4.40
2022-10-18T12:03:00.884Z,3.00
2022-10-18T12:05:30.596Z,7.70
2022-10-18T12:08:03.313Z,5.40
2022-10-18T12:10:44.435Z,3.13
2022-10-18T12:13:29.815Z,2.90
2022-10-18T12:15:58.471Z,2.30
2022-10-18T12:18:31.617Z,2.37
2022-10-18T12:21:00.937Z,1.33
2022-10-18T12:23:38.961Z,1.40
2022-10-18T12:26:09.138Z,5.87
2022-10-18T12:28:47.867Z,1.20
2022-10-18T12:31:23.148Z,1.30
2022-10-18T12:33:56.579Z,1.03
2022-10-18T12:36:42.539Z,2.70
2022-10-18T12:39:19.243Z,2.93
2022-10-18T12:41:57.305Z,1.20
2022-10-18T12:44:31.418Z,0.90
2022-10-18T12:47:01.758Z,1.43
2022-10-18T12:49:34.134Z,1.80
2022-10-18T12:52:04.807Z,1.33
2022-10-18T12:54:35.879Z,6.50
2022-10-18T12:57:06.150Z,2.47
2022-10-18T12:59:52.114Z,1.23
2022-10-18T13:02:32.434Z,1.73
2022-10-18T13:05:02.457Z,1.00
2022-10-18T13:07:40.800Z,1.17
2022-10-18T13:10:42.413Z,1.30
2022-10-18T13:13:40.638Z,1.00
2022-10-18T13:16:38.669Z,3.40
2022-10-18T13:19:32.742Z,5.33
2022-10-18T13:22:15.928Z,2.13
2022-10-18T13:24:47.402Z,1.67
2022-10-18T13:27:37.032Z,1.67
2022-10-18T13:30:26.402Z,2.70
2022-10-18T13:32:59.938Z,3.90
2022-10-18T13:35:47.426Z,1.63
2022-10-18T13:38:33.781Z,5.40
2022-10-18T13:41:03.452Z,2.40
2022-10-18T13:44:24.329Z,2.47
2022-10-18T13:47:11.580Z,1.33
2022-10-18T13:49:57.150Z,6.60
2022-10-18T13:52:38.739Z,2.70
2022-10-18T13:55:33.545Z,1.30
2022-10-18T13:58:10.994Z,2.33
2022-10-18T14:00:52.831Z,4.50
2022-10-18T14:04:09.344Z,5.80
2022-10-18T14:06:41.308Z,1.53
2022-10-18T14:09:26.289Z,1.70
2022-10-18T14:12:22.229Z,1.30
2022-10-18T14:14:55.540Z,1.20
2022-10-18T14:17:31.399Z,2.40
2022-10-18T14:20:13.046Z,1.77
2022-10-18T14:22:46.804Z,1.87
2022-10-18T14:25:22.482Z,1.50
2022-10-18T14:28:06.922Z,6.33
2022-10-18T14:30:37.076Z,4.13
2022-10-18T14:33:05.432Z,2.63
2022-10-18T14:35:35.238Z,1.53
2022-10-18T14:38:04.420Z,1.63
2022-10-18T14:40:36.350Z,1.37
2022-10-18T14:43:13.082Z,1.63
2022-10-18T14:45:41.865Z,1.27
2022-10-18T14:48:16.809Z,1.20
2022-10-18T14:50:47.274Z,1.87
2022-10-18T14:53:18.864Z,0.90
2022-10-18T14:55:55.728Z,1.30
2022-10-18T14:58:25.468Z,2.80
2022-10-18T15:00:54.624Z,1.37
2022-10-18T15:03:22.999Z,1.50
2022-10-18T15:05:57.014Z,2.30
2022-10-18T15:08:27.948Z,3.57
2022-10-18T15:10:56.586Z,3.17
2022-10-18T15:13:26.505Z,2.70
2022-10-18T15:15:55.317Z,2.90
2022-10-18T15:18:25.584Z,3.60
2022-10-18T15:21:22.080Z,1.10
2022-10-18T15:23:50.181Z,2.60
2022-10-18T15:26:24.088Z,1.77
2022-10-18T15:29:00.454Z,1.73
2022-10-18T15:31:35.576Z,2.70
2022-10-18T15:34:12.189Z,1.40
2022-10-18T15:36:40.315Z,3.50
2022-10-18T15:39:09.652Z,1.93
2022-10-18T15:41:40.566Z,1.70
2022-10-18T15:44:21.251Z,1.20
2022-10-18T15:46:53.851Z,5.60
2022-10-18T15:49:50.890Z,3.67
2022-10-18T15:52:42.362Z,1.60
2022-10-18T15:55:56.513Z,1.40
2022-10-18T15:58:26.412Z,2.80
2022-10-18T16:00:59.443Z,2.83
2022-10-18T16:03:28.673Z,2.50
2022-10-18T16:06:00.309Z,1.57
2022-10-18T16:08:30.439Z,2.43
2022-10-18T16:10:59.714Z,3.87
2022-10-18T16:13:27.879Z,5.73
2022-10-18T16:15:57.309Z,2.50
2022-10-18T16:18:26.041Z,2.13
2022-10-18T16:20:54.158Z,4.57
2022-10-18T16:23:23.889Z,1.80
2022-10-18T16:25:52.200Z,3.70
2022-10-18T16:28:22.648Z,4.97
2022-10-18T16:30:55.714Z,2.13
2022-10-18T16:33:25.240Z,2.37
2022-10-18T16:35:54.050Z,2.00
2022-10-18T16:38:31.092Z,6.90
2022-10-18T16:41:02.192Z,6.83
2022-10-18T16:43:30.155Z,2.30
2022-10-18T16:45:58.173Z,3.00
2022-10-18T16:48:28.552Z,1.60
2022-10-18T16:50:59.124Z,2.63
2022-10-18T16:53:27.970Z,4.20
2022-10-18T16:55:58.235Z,6.23
2022-10-18T16:58:27.859Z,3.57
2022-10-18T17:00:56.405Z,11.00
2022-10-18T17:03:24.763Z,3.77
2022-10-18T17:05:56.133Z,6.60
2022-10-18T17:08:25.486Z,11.40
2022-10-18T17:10:55.898Z,11.57
2022-10-18T17:13:24.967Z,4.93
2022-10-18T17:15:53.679Z,4.30
2022-10-18T17:18:26.271Z,4.47
2022-10-18T17:20:56.501Z,2.60
2022-10-18T17:23:24.429Z,5.90
2022-10-18T17:26:04.887Z,6.10
2022-10-18T17:28:35.378Z,7.57
2022-10-18T17:31:03.409Z,7.03
2022-10-18T17:33:31.304Z,3.80
2022-10-18T17:36:03.047Z,7.60
2022-10-18T17:38:35.136Z,8.40
2022-10-18T17:41:10.219Z,6.80
2022-10-18T17:43:41.489Z,5.27
2022-10-18T17:46:09.459Z,11.97
2022-10-18T17:48:37.264Z,2.83
2022-10-18T17:51:09.801Z,3.97
2022-10-18T17:53:37.927Z,8.33
2022-10-18T17:56:07.638Z,5.83
2022-10-18T17:58:35.810Z,5.03
2022-10-18T18:01:11.078Z,7.73
2022-10-18T18:03:41.513Z,9.47
2022-10-18T18:06:16.137Z,9.00
2022-10-18T18:08:44.149Z,6.77
2022-10-18T18:11:11.905Z,4.20
2022-10-18T18:13:40.038Z,4.53
2022-10-18T18:16:12.908Z,6.27
2022-10-18T18:18:40.837Z,17.53
2022-10-18T18:21:08.687Z,5.80
2022-10-18T18:23:38.000Z,3.00
2022-10-18T18:26:06.284Z,19.50
2022-10-18T18:28:34.646Z,4.53
2022-10-18T18:31:06.755Z,5.53
2022-10-18T18:33:35.002Z,7.10
2022-10-18T18:36:04.712Z,4.20
2022-10-18T18:38:38.236Z,4.80
2022-10-18T18:41:10.652Z,3.70
2022-10-18T18:43:42.663Z,7.90
2022-10-18T18:46:12.589Z,4.90
2022-10-18T18:48:41.739Z,16.70
2022-10-18T18:51:13.405Z,10.10
2022-10-18T18:53:42.054Z,6.83
2022-10-18T18:56:13.900Z,9.00
2022-10-18T18:58:44.020Z,6.53
2022-10-18T19:01:14.811Z,3.63
2022-10-18T19:03:42.954Z,12.23
2022-10-18T19:06:13.026Z,6.20
2022-10-18T19:08:41.659Z,4.50
2022-10-18T19:11:13.095Z,5.07
2022-10-18T19:13:41.023Z,6.87
2022-10-18T19:16:20.196Z,6.43
2022-10-18T19:18:52.983Z,6.23
2022-10-18T19:21:21.539Z,9.43
2022-10-18T19:23:50.060Z,6.97
2022-10-18T19:26:32.050Z,6.87
2022-10-18T19:29:07.407Z,11.50
2022-10-18T19:31:36.217Z,5.07
2022-10-18T19:34:08.648Z,6.80
2022-10-18T19:36:37.486Z,18.33
2022-10-18T19:39:06.861Z,15.67
2022-10-18T19:41:36.090Z,10.50
2022-10-18T19:44:04.073Z,8.90
2022-10-18T19:46:32.187Z,5.87
2022-10-18T19:48:59.924Z,8.00
2022-10-18T19:51:28.476Z,11.27
2022-10-18T19:53:57.658Z,11.53
2022-10-18T19:56:29.798Z,9.17
2022-10-18T19:58:59.836Z,7.10
2022-10-18T20:01:29.268Z,15.23
2022-10-18T20:03:57.744Z,15.17
2022-10-18T20:06:25.506Z,11.10
2022-10-18T20:08:56.270Z,5.33
2022-10-18T20:11:27.031Z,14.43
2022-10-18T20:13:55.341Z,8.27
2022-10-18T20:16:28.417Z,11.03
2022-10-18T20:18:58.145Z,12.83
2022-10-18T20:21:27.253Z,10.70
2022-10-18T20:23:57.521Z,9.63
2022-10-18T20:26:25.667Z,12.10
2022-10-18T20:28:58.319Z,20.43
2022-10-18T20:31:30.203Z,15.00
2022-10-18T20:34:05.518Z,17.80
2022-10-18T20:36:34.038Z,13.70
2022-10-18T20:39:01.981Z,20.53
2022-10-18T20:41:31.454Z,16.23
2022-10-18T20:44:00.556Z,11.97
2022-10-18T20:46:32.151Z,9.13
2022-10-18T20:49:00.437Z,13.73
2022-10-18T20:51:28.773Z,16.23
2022-10-18T20:53:57.210Z,7.17
2022-10-18T20:56:26.561Z,9.10
2022-10-18T20:58:57.112Z,11.00
2022-10-18T21:01:27.262Z,15.60
2022-10-18T21:03:58.467Z,12.00
2022-10-18T21:06:28.570Z,12.13
2022-10-18T21:08:58.674Z,16.00
2022-10-18T21:11:27.656Z,15.33
2022-10-18T21:13:58.889Z,16.43
2022-10-18T21:16:26.937Z,21.97
2022-10-18T21:19:03.078Z,13.40
2022-10-18T21:21:30.968Z,10.10
2022-10-18T21:24:02.416Z,11.53
2022-10-18T21:26:36.053Z,15.63
2022-10-18T21:29:05.072Z,11.60
2022-10-18T21:31:34.825Z,10.90
2022-10-18T21:34:05.876Z,20.90
2022-10-18T21:36:35.483Z,7.43
2022-10-18T21:39:03.861Z,18.30
2022-10-18T21:41:31.997Z,12.00
2022-10-18T21:44:00.085Z,14.00
2022-10-18T21:46:28.010Z,15.43
2022-10-18T21:48:57.879Z,17.60
2022-10-18T21:51:28.682Z,15.93
2022-10-18T21:53:59.320Z,17.40
2022-10-18T21:56:28.888Z,8.10
2022-10-18T21:58:59.869Z,12.60
2022-10-18T22:01:29.894Z,10.70
2022-10-18T22:03:57.909Z,20.10
2022-10-18T22:06:32.228Z,12.50
2022-10-18T22:09:02.293Z,15.33
2022-10-18T22:11:32.146Z,13.20
2022-10-18T22:14:00.036Z,14.43
2022-10-18T22:16:28.305Z,10.50
2022-10-18T22:18:59.087Z,21.30
2022-10-18T22:21:29.094Z,24.67
2022-10-18T22:23:58.489Z,16.87
2022-10-18T22:26:27.818Z,18.90
2022-10-18T22:28:57.365Z,7.80
2022-10-18T22:31:30.334Z,11.10
2022-10-18T22:34:01.302Z,13.83
2022-10-18T22:36:30.997Z,10.80
2022-10-18T22:38:59.092Z,9.37
2022-10-18T22:41:27.309Z,9.60
2022-10-18T22:43:57.395Z,17.57
2022-10-18T22:46:30.429Z,17.97
2022-10-18T22:48:58.265Z,11.03
2022-10-18T22:51:29.719Z,14.90
2022-10-18T22:53:57.658Z,9.97
2022-10-18T22:56:25.870Z,11.73
2022-10-18T22:58:53.745Z,11.60
2022-10-18T23:01:23.280Z,11.30
2022-10-18T23:03:54.844Z,7.40
2022-10-18T23:06:25.104Z,9.00
2022-10-18T23:08:56.195Z,9.93
2022-10-18T23:11:24.830Z,10.97
2022-10-18T23:13:55.000Z,11.80
2022-10-18T23:16:23.330Z,11.43
2022-10-18T23:18:52.237Z,9.53
2022-10-18T23:21:20.762Z,11.10
2022-10-18T23:23:51.964Z,11.00
2022-10-18T23:26:22.873Z,15.13
2022-10-18T23:28:52.256Z,19.20
2022-10-18T23:31:22.420Z,13.27
2022-10-18T23:33:52.524Z,9.70
2022-10-18T23:36:20.599Z,9.30
2022-10-18T23:38:48.326Z,8.93
2022-10-18T23:41:17.443Z,11.43
2022-10-18T23:43:46.975Z,13.00
2022-10-18T23:46:16.020Z,10.07
2022-10-18T23:48:44.206Z,7.37
2022-10-18T23:51:12.211Z,11.30
2022-10-18T23:53:39.990Z,22.23
2022-10-18T23:56:10.324Z,7.87
2022-10-18T23:58:39.015Z,15.57
